Heath, Texas
Current Conditions -  °F | °C
As of 10:15 AM on Monday 22 Dec 2014 (Local Time) from KF46 Reporting Station
Scattered Clouds Scattered Clouds  
Wind Chill: 60°   Ceiling: Unl
Heat Index: 60°   Visibility: 10mi
Dew Point: 53°   Wind: 17mph
Humidity: 76%   Direction: 210°SSW
Pressure: 29.6"   Gusts: 23mph
Location:  32.8584°N, 96.4261°W
Report Text: KF46 221615Z AUTO 21015G20KT 10SM SCT015 16/12 A2960 RMK AO2 T01570115
Loading
Personal Weather Stations






























Interactive Weather Map New forecast layout! Learn more

10-Day Weather Forecast

Advertisements
Track Severe Weather on mobile